sensor_id;sensor_type;location;lat;lon;timestamp;pressure;altitude;pressure_sealevel;temperature;humidity
53262;BME280;39658;51.090;-1.786;2023-03-23T00:01:13;98961.47;;;8.77;100.00
53262;BME280;39658;51.090;-1.786;2023-03-23T00:03:41;98967.13;;;8.73;100.00
53262;BME280;39658;51.090;-1.786;2023-03-23T00:06:08;98963.78;;;8.71;100.00
53262;BME280;39658;51.090;-1.786;2023-03-23T00:08:39;98963.56;;;8.53;100.00
53262;BME280;39658;51.090;-1.786;2023-03-23T00:11:10;98984.41;;;8.44;100.00
53262;BME280;39658;51.090;-1.786;2023-03-23T00:13:40;98963.06;;;8.38;100.00
53262;BME280;39658;51.090;-1.786;2023-03-23T00:16:08;98961.47;;;8.47;100.00
53262;BME280;39658;51.090;-1.786;2023-03-23T00:18:43;98971.38;;;8.43;100.00
53262;BME280;39658;51.090;-1.786;2023-03-23T00:21:09;98976.06;;;8.39;100.00
53262;BME280;39658;51.090;-1.786;2023-03-23T00:23:38;98976.41;;;8.25;100.00
53262;BME280;39658;51.090;-1.786;2023-03-23T00:26:06;98973.72;;;8.15;100.00
53262;BME280;39658;51.090;-1.786;2023-03-23T00:28:33;98987.72;;;8.04;100.00
53262;BME280;39658;51.090;-1.786;2023-03-23T00:31:01;98995.81;;;8.13;100.00
53262;BME280;39658;51.090;-1.786;2023-03-23T00:33:33;99002.78;;;8.02;100.00
53262;BME280;39658;51.090;-1.786;2023-03-23T00:36:03;98997.78;;;7.99;100.00
53262;BME280;39658;51.090;-1.786;2023-03-23T00:38:31;99000.34;;;7.89;100.00
53262;BME280;39658;51.090;-1.786;2023-03-23T00:40:59;98996.50;;;7.94;100.00
53262;BME280;39658;51.090;-1.786;2023-03-23T00:43:28;98996.88;;;7.89;100.00
53262;BME280;39658;51.090;-1.786;2023-03-23T00:45:56;98998.28;;;7.93;100.00
53262;BME280;39658;51.090;-1.786;2023-03-23T00:48:26;99005.25;;;7.83;100.00
53262;BME280;39658;51.090;-1.786;2023-03-23T00:50:54;99004.22;;;7.74;100.00
53262;BME280;39658;51.090;-1.786;2023-03-23T00:53:22;98999.69;;;7.76;100.00
53262;BME280;39658;51.090;-1.786;2023-03-23T00:55:49;99001.81;;;7.82;100.00
53262;BME280;39658;51.090;-1.786;2023-03-23T00:58:17;99011.47;;;7.82;100.00
53262;BME280;39658;51.090;-1.786;2023-03-23T01:00:44;99018.38;;;7.83;100.00
53262;BME280;39658;51.090;-1.786;2023-03-23T01:03:10;99019.78;;;7.87;100.00
53262;BME280;39658;51.090;-1.786;2023-03-23T01:05:43;99017.09;;;7.77;100.00
53262;BME280;39658;51.090;-1.786;2023-03-23T01:08:13;99025.28;;;7.84;100.00
53262;BME280;39658;51.090;-1.786;2023-03-23T01:10:41;99030.66;;;7.82;100.00
53262;BME280;39658;51.090;-1.786;2023-03-23T01:13:08;99018.97;;;7.86;100.00
53262;BME280;39658;51.090;-1.786;2023-03-23T01:15:36;99032.16;;;7.96;100.00
53262;BME280;39658;51.090;-1.786;2023-03-23T01:18:03;99026.84;;;7.86;100.00
53262;BME280;39658;51.090;-1.786;2023-03-23T01:20:30;99027.84;;;7.74;100.00
53262;BME280;39658;51.090;-1.786;2023-03-23T01:22:57;99032.97;;;7.76;100.00
53262;BME280;39658;51.090;-1.786;2023-03-23T01:25:26;99036.91;;;7.70;100.00
53262;BME280;39658;51.090;-1.786;2023-03-23T01:27:53;99034.53;;;7.67;100.00
53262;BME280;39658;51.090;-1.786;2023-03-23T01:30:20;99041.09;;;7.61;100.00
53262;BME280;39658;51.090;-1.786;2023-03-23T01:32:48;99037.31;;;7.54;100.00
53262;BME280;39658;51.090;-1.786;2023-03-23T01:35:15;99031.38;;;7.41;100.00
53262;BME280;39658;51.090;-1.786;2023-03-23T01:37:42;99038.16;;;7.54;100.00
53262;BME280;39658;51.090;-1.786;2023-03-23T01:40:10;99033.38;;;7.48;100.00
53262;BME280;39658;51.090;-1.786;2023-03-23T01:42:38;99036.03;;;7.37;100.00
53262;BME280;39658;51.090;-1.786;2023-03-23T01:45:28;99053.22;;;7.30;100.00
53262;BME280;39658;51.090;-1.786;2023-03-23T01:48:14;99049.41;;;7.23;100.00
53262;BME280;39658;51.090;-1.786;2023-03-23T01:50:47;99053.44;;;7.27;100.00
53262;BME280;39658;51.090;-1.786;2023-03-23T01:53:16;99051.09;;;7.12;100.00
53262;BME280;39658;51.090;-1.786;2023-03-23T01:55:44;99050.16;;;7.13;100.00
53262;BME280;39658;51.090;-1.786;2023-03-23T01:58:13;99055.25;;;7.04;100.00
53262;BME280;39658;51.090;-1.786;2023-03-23T02:00:41;99051.59;;;6.95;100.00
53262;BME280;39658;51.090;-1.786;2023-03-23T02:03:10;99052.75;;;7.02;100.00
53262;BME280;39658;51.090;-1.786;2023-03-23T02:05:42;99064.06;;;7.14;100.00
53262;BME280;39658;51.090;-1.786;2023-03-23T02:08:10;99044.53;;;7.07;100.00
53262;BME280;39658;51.090;-1.786;2023-03-23T02:10:37;99046.31;;;7.06;100.00
53262;BME280;39658;51.090;-1.786;2023-03-23T02:13:06;99043.44;;;7.21;100.00
53262;BME280;39658;51.090;-1.786;2023-03-23T02:15:44;99050.97;;;7.14;100.00
53262;BME280;39658;51.090;-1.786;2023-03-23T02:18:21;99059.06;;;7.22;100.00
53262;BME280;39658;51.090;-1.786;2023-03-23T02:24:10;99057.41;;;7.21;100.00
53262;BME280;39658;51.090;-1.786;2023-03-23T02:26:50;99057.66;;;7.18;100.00
53262;BME280;39658;51.090;-1.786;2023-03-23T02:29:44;99070.84;;;7.05;100.00
53262;BME280;39658;51.090;-1.786;2023-03-23T02:32:27;99063.47;;;7.22;100.00
53262;BME280;39658;51.090;-1.786;2023-03-23T02:35:01;99055.72;;;7.20;100.00
53262;BME280;39658;51.090;-1.786;2023-03-23T02:37:32;99063.38;;;7.12;100.00
53262;BME280;39658;51.090;-1.786;2023-03-23T02:40:05;99051.94;;;7.01;100.00
53262;BME280;39658;51.090;-1.786;2023-03-23T02:42:36;99064.09;;;7.03;100.00
53262;BME280;39658;51.090;-1.786;2023-03-23T02:45:06;99066.09;;;7.10;100.00
53262;BME280;39658;51.090;-1.786;2023-03-23T02:47:35;99064.91;;;7.14;100.00
53262;BME280;39658;51.090;-1.786;2023-03-23T02:50:09;99059.78;;;7.13;100.00
53262;BME280;39658;51.090;-1.786;2023-03-23T02:52:36;99064.78;;;7.16;100.00
53262;BME280;39658;51.090;-1.786;2023-03-23T02:55:06;99062.75;;;7.08;100.00
53262;BME280;39658;51.090;-1.786;2023-03-23T02:57:37;99072.19;;;6.99;100.00
53262;BME280;39658;51.090;-1.786;2023-03-23T03:00:06;99076.44;;;7.00;100.00
53262;BME280;39658;51.090;-1.786;2023-03-23T03:02:36;99084.78;;;6.94;100.00
53262;BME280;39658;51.090;-1.786;2023-03-23T03:05:14;99079.66;;;6.93;100.00
53262;BME280;39658;51.090;-1.786;2023-03-23T03:07:57;99089.31;;;6.81;100.00
53262;BME280;39658;51.090;-1.786;2023-03-23T03:10:29;99084.78;;;6.83;100.00
53262;BME280;39658;51.090;-1.786;2023-03-23T03:13:03;99097.75;;;6.73;100.00
53262;BME280;39658;51.090;-1.786;2023-03-23T03:15:35;99097.66;;;6.75;100.00
53262;BME280;39658;51.090;-1.786;2023-03-23T03:18:10;99105.38;;;6.65;100.00
53262;BME280;39658;51.090;-1.786;2023-03-23T03:20:44;99095.38;;;6.59;100.00
53262;BME280;39658;51.090;-1.786;2023-03-23T03:23:13;99098.69;;;6.61;100.00
53262;BME280;39658;51.090;-1.786;2023-03-23T03:25:42;99093.09;;;6.54;100.00
53262;BME280;39658;51.090;-1.786;2023-03-23T03:28:14;99094.16;;;6.63;100.00
53262;BME280;39658;51.090;-1.786;2023-03-23T03:30:43;99096.31;;;6.69;100.00
53262;BME280;39658;51.090;-1.786;2023-03-23T03:33:12;99105.38;;;6.65;100.00
53262;BME280;39658;51.090;-1.786;2023-03-23T03:35:41;99099.38;;;6.52;100.00
53262;BME280;39658;51.090;-1.786;2023-03-23T03:38:11;99097.78;;;6.38;100.00
53262;BME280;39658;51.090;-1.786;2023-03-23T03:40:38;99099.41;;;6.27;100.00
53262;BME280;39658;51.090;-1.786;2023-03-23T03:43:05;99096.09;;;6.25;100.00
53262;BME280;39658;51.090;-1.786;2023-03-23T03:45:32;99105.22;;;6.20;100.00
53262;BME280;39658;51.090;-1.786;2023-03-23T03:47:59;99102.66;;;6.07;100.00
53262;BME280;39658;51.090;-1.786;2023-03-23T03:50:27;99113.63;;;5.88;100.00
53262;BME280;39658;51.090;-1.786;2023-03-23T03:52:55;99120.34;;;5.79;100.00
53262;BME280;39658;51.090;-1.786;2023-03-23T03:55:22;99121.09;;;5.68;100.00
53262;BME280;39658;51.090;-1.786;2023-03-23T03:57:49;99117.66;;;5.68;100.00
53262;BME280;39658;51.090;-1.786;2023-03-23T04:00:16;99117.34;;;5.72;100.00
53262;BME280;39658;51.090;-1.786;2023-03-23T04:02:45;99122.72;;;5.58;100.00
53262;BME280;39658;51.090;-1.786;2023-03-23T04:05:17;99127.69;;;5.74;100.00
53262;BME280;39658;51.090;-1.786;2023-03-23T04:07:44;99122.47;;;5.74;100.00
53262;BME280;39658;51.090;-1.786;2023-03-23T04:10:19;99136.25;;;5.76;100.00
53262;BME280;39658;51.090;-1.786;2023-03-23T04:12:47;99149.69;;;5.96;100.00
53262;BME280;39658;51.090;-1.786;2023-03-23T04:15:14;99154.28;;;6.05;100.00
53262;BME280;39658;51.090;-1.786;2023-03-23T04:17:41;99153.41;;;6.17;100.00
53262;BME280;39658;51.090;-1.786;2023-03-23T04:20:09;99161.66;;;6.35;100.00
53262;BME280;39658;51.090;-1.786;2023-03-23T04:22:41;99165.56;;;6.54;100.00
53262;BME280;39658;51.090;-1.786;2023-03-23T04:25:10;99185.59;;;6.66;100.00
53262;BME280;39658;51.090;-1.786;2023-03-23T04:27:39;99171.47;;;6.80;100.00
53262;BME280;39658;51.090;-1.786;2023-03-23T04:30:09;99166.56;;;6.75;100.00
53262;BME280;39658;51.090;-1.786;2023-03-23T04:32:37;99165.06;;;6.84;100.00
53262;BME280;39658;51.090;-1.786;2023-03-23T04:35:08;99169.03;;;7.01;100.00
53262;BME280;39658;51.090;-1.786;2023-03-23T04:37:36;99160.09;;;7.15;100.00
53262;BME280;39658;51.090;-1.786;2023-03-23T04:40:05;99161.75;;;7.05;100.00
53262;BME280;39658;51.090;-1.786;2023-03-23T04:42:37;99153.06;;;7.04;100.00
53262;BME280;39658;51.090;-1.786;2023-03-23T04:45:07;99145.56;;;6.99;100.00
53262;BME280;39658;51.090;-1.786;2023-03-23T04:47:36;99143.41;;;6.93;100.00
53262;BME280;39658;51.090;-1.786;2023-03-23T04:50:07;99141.25;;;6.87;100.00
53262;BME280;39658;51.090;-1.786;2023-03-23T04:52:35;99150.53;;;6.91;100.00
53262;BME280;39658;51.090;-1.786;2023-03-23T04:55:04;99159.38;;;7.01;100.00
53262;BME280;39658;51.090;-1.786;2023-03-23T04:57:32;99160.34;;;7.12;100.00
53262;BME280;39658;51.090;-1.786;2023-03-23T04:59:59;99159.13;;;7.16;100.00
53262;BME280;39658;51.090;-1.786;2023-03-23T05:02:27;99140.19;;;7.12;100.00
53262;BME280;39658;51.090;-1.786;2023-03-23T05:04:55;99145.09;;;7.28;100.00
53262;BME280;39658;51.090;-1.786;2023-03-23T05:07:22;99143.66;;;7.35;100.00
53262;BME280;39658;51.090;-1.786;2023-03-23T05:09:49;99137.69;;;7.45;100.00
53262;BME280;39658;51.090;-1.786;2023-03-23T05:12:16;99145.78;;;7.53;100.00
53262;BME280;39658;51.090;-1.786;2023-03-23T05:14:43;99139.63;;;7.43;100.00
53262;BME280;39658;51.090;-1.786;2023-03-23T05:17:10;99135.66;;;7.48;100.00
53262;BME280;39658;51.090;-1.786;2023-03-23T05:19:39;99137.56;;;7.58;100.00
53262;BME280;39658;51.090;-1.786;2023-03-23T05:22:09;99125.88;;;7.62;100.00
53262;BME280;39658;51.090;-1.786;2023-03-23T05:24:38;99123.13;;;7.63;100.00
53262;BME280;39658;51.090;-1.786;2023-03-23T05:27:05;99134.34;;;7.65;100.00
53262;BME280;39658;51.090;-1.786;2023-03-23T05:29:33;99130.66;;;7.68;100.00
53262;BME280;39658;51.090;-1.786;2023-03-23T05:32:01;99122.16;;;7.64;100.00
53262;BME280;39658;51.090;-1.786;2023-03-23T05:34:29;99116.66;;;7.67;100.00
53262;BME280;39658;51.090;-1.786;2023-03-23T05:36:59;99114.88;;;7.79;100.00
53262;BME280;39658;51.090;-1.786;2023-03-23T05:39:26;99121.44;;;7.85;100.00
53262;BME280;39658;51.090;-1.786;2023-03-23T05:41:53;99115.44;;;7.94;100.00
53262;BME280;39658;51.090;-1.786;2023-03-23T05:44:20;99111.84;;;7.95;100.00
53262;BME280;39658;51.090;-1.786;2023-03-23T05:46:47;99117.44;;;8.02;100.00
53262;BME280;39658;51.090;-1.786;2023-03-23T05:49:14;99121.31;;;8.19;100.00
53262;BME280;39658;51.090;-1.786;2023-03-23T05:51:42;99116.91;;;8.19;100.00
53262;BME280;39658;51.090;-1.786;2023-03-23T05:54:10;99110.59;;;8.11;100.00
53262;BME280;39658;51.090;-1.786;2023-03-23T05:56:37;99107.06;;;8.00;100.00
53262;BME280;39658;51.090;-1.786;2023-03-23T05:59:04;99109.09;;;7.97;100.00
53262;BME280;39658;51.090;-1.786;2023-03-23T06:01:31;99115.31;;;7.96;100.00
53262;BME280;39658;51.090;-1.786;2023-03-23T06:03:58;99124.00;;;7.96;100.00
53262;BME280;39658;51.090;-1.786;2023-03-23T06:06:26;99100.84;;;8.01;100.00
53262;BME280;39658;51.090;-1.786;2023-03-23T06:08:53;99118.75;;;7.96;100.00
53262;BME280;39658;51.090;-1.786;2023-03-23T06:11:21;99121.63;;;7.93;100.00
53262;BME280;39658;51.090;-1.786;2023-03-23T06:13:49;99116.50;;;7.91;100.00
53262;BME280;39658;51.090;-1.786;2023-03-23T06:16:16;99119.00;;;7.93;100.00
53262;BME280;39658;51.090;-1.786;2023-03-23T06:18:43;99119.72;;;7.95;100.00
53262;BME280;39658;51.090;-1.786;2023-03-23T06:21:10;99135.81;;;7.90;100.00
53262;BME280;39658;51.090;-1.786;2023-03-23T06:23:38;99123.19;;;7.84;100.00
53262;BME280;39658;51.090;-1.786;2023-03-23T06:26:07;99122.03;;;7.77;100.00
53262;BME280;39658;51.090;-1.786;2023-03-23T06:28:36;99111.78;;;7.74;100.00
53262;BME280;39658;51.090;-1.786;2023-03-23T06:31:05;99116.19;;;7.73;100.00
53262;BME280;39658;51.090;-1.786;2023-03-23T06:33:33;99116.31;;;7.72;100.00
53262;BME280;39658;51.090;-1.786;2023-03-23T06:36:01;99130.41;;;7.71;100.00
53262;BME280;39658;51.090;-1.786;2023-03-23T06:38:28;99131.34;;;7.70;100.00
53262;BME280;39658;51.090;-1.786;2023-03-23T06:40:55;99141.72;;;7.71;100.00
53262;BME280;39658;51.090;-1.786;2023-03-23T06:43:23;99135.03;;;7.67;100.00
53262;BME280;39658;51.090;-1.786;2023-03-23T06:45:51;99130.88;;;7.65;100.00
53262;BME280;39658;51.090;-1.786;2023-03-23T06:48:18;99130.75;;;7.66;100.00
53262;BME280;39658;51.090;-1.786;2023-03-23T06:50:45;99139.34;;;7.68;100.00
53262;BME280;39658;51.090;-1.786;2023-03-23T06:53:13;99134.34;;;7.65;100.00
53262;BME280;39658;51.090;-1.786;2023-03-23T06:55:42;99136.13;;;7.65;100.00
53262;BME280;39658;51.090;-1.786;2023-03-23T06:58:09;99138.16;;;7.72;100.00
53262;BME280;39658;51.090;-1.786;2023-03-23T07:00:36;99140.91;;;7.71;100.00
53262;BME280;39658;51.090;-1.786;2023-03-23T07:03:05;99144.31;;;7.83;100.00
53262;BME280;39658;51.090;-1.786;2023-03-23T07:05:32;99153.47;;;8.00;100.00
53262;BME280;39658;51.090;-1.786;2023-03-23T07:08:00;99132.91;;;8.16;100.00
53262;BME280;39658;51.090;-1.786;2023-03-23T07:10:27;99133.16;;;8.34;100.00
53262;BME280;39658;51.090;-1.786;2023-03-23T07:12:54;99129.59;;;8.35;100.00
53262;BME280;39658;51.090;-1.786;2023-03-23T07:15:22;99128.16;;;8.31;100.00
53262;BME280;39658;51.090;-1.786;2023-03-23T07:17:48;99123.63;;;8.33;100.00
53262;BME280;39658;51.090;-1.786;2023-03-23T07:20:16;99120.16;;;8.44;100.00
53262;BME280;39658;51.090;-1.786;2023-03-23T07:22:43;99141.19;;;8.44;100.00
53262;BME280;39658;51.090;-1.786;2023-03-23T07:25:10;99131.94;;;8.50;100.00
53262;BME280;39658;51.090;-1.786;2023-03-23T07:27:37;99114.66;;;8.47;100.00
53262;BME280;39658;51.090;-1.786;2023-03-23T07:30:05;99129.78;;;8.55;100.00
53262;BME280;39658;51.090;-1.786;2023-03-23T07:32:32;99131.38;;;8.88;100.00
53262;BME280;39658;51.090;-1.786;2023-03-23T07:35:00;99136.47;;;9.11;100.00
53262;BME280;39658;51.090;-1.786;2023-03-23T07:37:28;99112.47;;;9.04;100.00
53262;BME280;39658;51.090;-1.786;2023-03-23T07:39:55;99115.94;;;8.95;100.00
53262;BME280;39658;51.090;-1.786;2023-03-23T07:42:22;99115.41;;;9.01;100.00
53262;BME280;39658;51.090;-1.786;2023-03-23T07:44:49;99102.28;;;8.80;100.00
53262;BME280;39658;51.090;-1.786;2023-03-23T07:47:16;99129.25;;;8.82;100.00
53262;BME280;39658;51.090;-1.786;2023-03-23T07:49:44;99130.53;;;8.88;100.00
53262;BME280;39658;51.090;-1.786;2023-03-23T07:52:11;99120.47;;;8.93;100.00
53262;BME280;39658;51.090;-1.786;2023-03-23T07:54:39;99124.03;;;9.13;100.00
53262;BME280;39658;51.090;-1.786;2023-03-23T07:57:06;99113.94;;;9.18;100.00
53262;BME280;39658;51.090;-1.786;2023-03-23T07:59:33;99124.97;;;9.43;100.00
53262;BME280;39658;51.090;-1.786;2023-03-23T08:02:00;99104.28;;;9.28;100.00
53262;BME280;39658;51.090;-1.786;2023-03-23T08:04:27;99125.38;;;9.38;100.00
53262;BME280;39658;51.090;-1.786;2023-03-23T08:06:54;99120.16;;;9.48;100.00
53262;BME280;39658;51.090;-1.786;2023-03-23T08:09:21;99123.25;;;9.32;100.00
53262;BME280;39658;51.090;-1.786;2023-03-23T08:11:49;99119.41;;;9.36;100.00
53262;BME280;39658;51.090;-1.786;2023-03-23T08:14:17;99126.91;;;9.41;100.00
53262;BME280;39658;51.090;-1.786;2023-03-23T08:16:44;99124.75;;;9.56;100.00
53262;BME280;39658;51.090;-1.786;2023-03-23T08:19:11;99125.56;;;9.56;100.00
53262;BME280;39658;51.090;-1.786;2023-03-23T08:21:37;99112.16;;;9.69;100.00
53262;BME280;39658;51.090;-1.786;2023-03-23T08:24:04;99114.50;;;9.62;100.00
53262;BME280;39658;51.090;-1.786;2023-03-23T08:26:32;99117.66;;;9.46;100.00
53262;BME280;39658;51.090;-1.786;2023-03-23T08:29:00;99111.41;;;9.47;100.00
53262;BME280;39658;51.090;-1.786;2023-03-23T08:31:28;99117.25;;;9.51;100.00
53262;BME280;39658;51.090;-1.786;2023-03-23T08:33:55;99113.78;;;9.50;100.00
53262;BME280;39658;51.090;-1.786;2023-03-23T08:36:22;99109.41;;;9.80;100.00
53262;BME280;39658;51.090;-1.786;2023-03-23T08:38:49;99125.34;;;9.79;100.00
53262;BME280;39658;51.090;-1.786;2023-03-23T08:41:17;99123.16;;;10.03;100.00
53262;BME280;39658;51.090;-1.786;2023-03-23T08:43:44;99113.38;;;10.35;100.00
53262;BME280;39658;51.090;-1.786;2023-03-23T08:46:13;99118.06;;;10.21;100.00
53262;BME280;39658;51.090;-1.786;2023-03-23T08:48:40;99110.13;;;9.92;100.00
53262;BME280;39658;51.090;-1.786;2023-03-23T08:51:09;99118.84;;;9.93;100.00
53262;BME280;39658;51.090;-1.786;2023-03-23T08:53:36;99129.97;;;9.96;100.00
53262;BME280;39658;51.090;-1.786;2023-03-23T08:56:04;99117.06;;;10.03;100.00
53262;BME280;39658;51.090;-1.786;2023-03-23T08:58:31;99117.22;;;10.31;100.00
53262;BME280;39658;51.090;-1.786;2023-03-23T09:00:58;99125.44;;;10.37;100.00
53262;BME280;39658;51.090;-1.786;2023-03-23T09:03:27;99106.50;;;11.28;100.00
53262;BME280;39658;51.090;-1.786;2023-03-23T09:05:58;99099.91;;;11.88;100.00
53262;BME280;39658;51.090;-1.786;2023-03-23T09:08:25;99091.81;;;12.17;100.00
53262;BME280;39658;51.090;-1.786;2023-03-23T09:10:54;99090.81;;;14.42;100.00
53262;BME280;39658;51.090;-1.786;2023-03-23T09:13:21;99075.25;;;13.38;100.00
53262;BME280;39658;51.090;-1.786;2023-03-23T09:15:49;99081.00;;;12.99;100.00
53262;BME280;39658;51.090;-1.786;2023-03-23T09:18:15;99077.56;;;11.64;100.00
53262;BME280;39658;51.090;-1.786;2023-03-23T09:20:45;99078.16;;;10.93;100.00
53262;BME280;39658;51.090;-1.786;2023-03-23T09:23:12;99082.38;;;10.76;100.00
53262;BME280;39658;51.090;-1.786;2023-03-23T09:25:40;99094.47;;;10.59;100.00
53262;BME280;39658;51.090;-1.786;2023-03-23T09:28:07;99096.16;;;10.40;100.00
53262;BME280;39658;51.090;-1.786;2023-03-23T09:30:35;99093.22;;;10.14;100.00
53262;BME280;39658;51.090;-1.786;2023-03-23T09:33:03;99103.22;;;10.11;100.00
53262;BME280;39658;51.090;-1.786;2023-03-23T09:35:31;99085.34;;;10.63;100.00
53262;BME280;39658;51.090;-1.786;2023-03-23T09:38:01;99097.78;;;10.81;100.00
53262;BME280;39658;51.090;-1.786;2023-03-23T09:40:32;99099.09;;;10.47;100.00
53262;BME280;39658;51.090;-1.786;2023-03-23T09:43:16;99094.94;;;10.45;100.00
53262;BME280;39658;51.090;-1.786;2023-03-23T09:45:51;99091.47;;;10.44;100.00
53262;BME280;39658;51.090;-1.786;2023-03-23T09:48:36;99090.47;;;10.65;100.00
53262;BME280;39658;51.090;-1.786;2023-03-23T09:51:12;99086.88;;;10.46;100.00
53262;BME280;39658;51.090;-1.786;2023-03-23T09:53:48;99088.34;;;10.78;100.00
53262;BME280;39658;51.090;-1.786;2023-03-23T09:56:17;99078.91;;;10.66;100.00
53262;BME280;39658;51.090;-1.786;2023-03-23T09:58:50;99080.47;;;10.68;100.00
53262;BME280;39658;51.090;-1.786;2023-03-23T10:01:22;99080.34;;;11.07;100.00
53262;BME280;39658;51.090;-1.786;2023-03-23T10:03:58;99093.28;;;11.01;100.00
53262;BME280;39658;51.090;-1.786;2023-03-23T10:06:27;99094.81;;;11.59;100.00
53262;BME280;39658;51.090;-1.786;2023-03-23T10:08:57;99104.91;;;11.45;100.00
53262;BME280;39658;51.090;-1.786;2023-03-23T10:11:27;99120.75;;;10.98;100.00
53262;BME280;39658;51.090;-1.786;2023-03-23T10:14:14;99119.75;;;10.42;100.00
53262;BME280;39658;51.090;-1.786;2023-03-23T10:16:50;99130.50;;;10.10;100.00
53262;BME280;39658;51.090;-1.786;2023-03-23T10:19:27;99134.97;;;9.99;100.00
53262;BME280;39658;51.090;-1.786;2023-03-23T10:21:59;99140.22;;;9.99;100.00
53262;BME280;39658;51.090;-1.786;2023-03-23T10:24:34;99149.88;;;9.89;100.00
53262;BME280;39658;51.090;-1.786;2023-03-23T10:27:09;99132.88;;;10.03;100.00
53262;BME280;39658;51.090;-1.786;2023-03-23T10:29:41;99139.09;;;10.02;100.00
53262;BME280;39658;51.090;-1.786;2023-03-23T10:32:12;99148.50;;;9.85;100.00
53262;BME280;39658;51.090;-1.786;2023-03-23T10:34:44;99149.75;;;9.81;100.00
53262;BME280;39658;51.090;-1.786;2023-03-23T10:37:15;99158.88;;;9.77;100.00
53262;BME280;39658;51.090;-1.786;2023-03-23T10:39:48;99150.69;;;9.80;100.00
53262;BME280;39658;51.090;-1.786;2023-03-23T10:42:27;99149.13;;;10.37;100.00
53262;BME280;39658;51.090;-1.786;2023-03-23T10:44:56;99154.75;;;11.76;100.00
53262;BME280;39658;51.090;-1.786;2023-03-23T10:47:25;99147.16;;;11.91;100.00
53262;BME280;39658;51.090;-1.786;2023-03-23T10:49:55;99144.44;;;11.18;100.00
53262;BME280;39658;51.090;-1.786;2023-03-23T10:52:29;99123.50;;;11.44;100.00
53262;BME280;39658;51.090;-1.786;2023-03-23T10:55:03;99124.91;;;13.18;100.00
53262;BME280;39658;51.090;-1.786;2023-03-23T10:57:33;99132.72;;;12.49;100.00
53262;BME280;39658;51.090;-1.786;2023-03-23T11:00:03;99139.22;;;11.73;100.00
53262;BME280;39658;51.090;-1.786;2023-03-23T11:02:37;99127.41;;;11.67;100.00
53262;BME280;39658;51.090;-1.786;2023-03-23T11:05:07;99138.41;;;11.91;100.00
53262;BME280;39658;51.090;-1.786;2023-03-23T11:07:40;99118.41;;;11.32;100.00
53262;BME280;39658;51.090;-1.786;2023-03-23T11:10:17;99120.47;;;11.94;100.00
53262;BME280;39658;51.090;-1.786;2023-03-23T11:12:47;99112.84;;;14.09;100.00
53262;BME280;39658;51.090;-1.786;2023-03-23T11:15:28;99117.75;;;13.37;100.00
53262;BME280;39658;51.090;-1.786;2023-03-23T11:18:00;99120.81;;;12.98;100.00
53262;BME280;39658;51.090;-1.786;2023-03-23T11:20:29;99104.72;;;15.41;100.00
53262;BME280;39658;51.090;-1.786;2023-03-23T11:23:01;99100.09;;;16.67;100.00
53262;BME280;39658;51.090;-1.786;2023-03-23T11:28:36;99091.69;;;16.40;100.00
53262;BME280;39658;51.090;-1.786;2023-03-23T11:31:05;99086.41;;;15.54;100.00
53262;BME280;39658;51.090;-1.786;2023-03-23T11:33:46;99102.72;;;14.54;100.00
53262;BME280;39658;51.090;-1.786;2023-03-23T11:36:14;99107.72;;;13.49;100.00
53262;BME280;39658;51.090;-1.786;2023-03-23T11:38:42;99103.66;;;13.71;100.00
53262;BME280;39658;51.090;-1.786;2023-03-23T11:41:16;99069.31;;;15.17;100.00
53262;BME280;39658;51.090;-1.786;2023-03-23T11:43:46;99077.88;;;15.67;100.00
53262;BME280;39658;51.090;-1.786;2023-03-23T11:46:23;99061.81;;;14.32;100.00
53262;BME280;39658;51.090;-1.786;2023-03-23T11:48:57;99082.44;;;15.11;100.00
53262;BME280;39658;51.090;-1.786;2023-03-23T11:51:30;99093.28;;;14.10;100.00
53262;BME280;39658;51.090;-1.786;2023-03-23T11:54:07;99091.94;;;13.98;100.00
53262;BME280;39658;51.090;-1.786;2023-03-23T11:56:39;99092.34;;;13.60;100.00
53262;BME280;39658;51.090;-1.786;2023-03-23T11:59:10;99084.03;;;14.06;100.00
53262;BME280;39658;51.090;-1.786;2023-03-23T12:01:47;99077.03;;;14.13;100.00
53262;BME280;39658;51.090;-1.786;2023-03-23T12:04:40;99070.44;;;14.75;100.00
53262;BME280;39658;51.090;-1.786;2023-03-23T12:07:28;99058.34;;;15.60;100.00
53262;BME280;39658;51.090;-1.786;2023-03-23T12:10:06;99056.44;;;16.61;100.00
53262;BME280;39658;51.090;-1.786;2023-03-23T12:12:42;99055.75;;;18.22;100.00
53262;BME280;39658;51.090;-1.786;2023-03-23T12:15:21;99037.41;;;16.88;100.00
53262;BME280;39658;51.090;-1.786;2023-03-23T12:17:56;99063.03;;;15.81;100.00
53262;BME280;39658;51.090;-1.786;2023-03-23T12:20:32;99052.88;;;15.53;100.00
53262;BME280;39658;51.090;-1.786;2023-03-23T12:23:11;99051.09;;;15.46;100.00
53262;BME280;39658;51.090;-1.786;2023-03-23T12:28:47;99056.63;;;13.64;100.00
53262;BME280;39658;51.090;-1.786;2023-03-23T12:31:23;99051.66;;;13.61;100.00
53262;BME280;39658;51.090;-1.786;2023-03-23T12:33:57;99063.22;;;13.52;100.00
53262;BME280;39658;51.090;-1.786;2023-03-23T12:36:40;99065.69;;;13.54;100.00
53262;BME280;39658;51.090;-1.786;2023-03-23T12:42:16;99059.94;;;13.24;100.00
53262;BME280;39658;51.090;-1.786;2023-03-23T12:44:53;99052.84;;;13.92;100.00
53262;BME280;39658;51.090;-1.786;2023-03-23T12:47:29;99049.84;;;14.52;100.00
53262;BME280;39658;51.090;-1.786;2023-03-23T12:50:01;99046.88;;;14.47;100.00
53262;BME280;39658;51.090;-1.786;2023-03-23T12:52:35;99051.81;;;13.60;100.00
53262;BME280;39658;51.090;-1.786;2023-03-23T12:55:15;99049.19;;;12.91;100.00
53262;BME280;39658;51.090;-1.786;2023-03-23T12:57:49;99040.19;;;12.75;100.00
53262;BME280;39658;51.090;-1.786;2023-03-23T13:00:23;99045.22;;;12.61;100.00
53262;BME280;39658;51.090;-1.786;2023-03-23T13:02:57;99053.41;;;12.49;100.00
53262;BME280;39658;51.090;-1.786;2023-03-23T13:05:44;99050.28;;;12.10;100.00
53262;BME280;39658;51.090;-1.786;2023-03-23T13:08:22;99056.31;;;11.84;100.00
53262;BME280;39658;51.090;-1.786;2023-03-23T13:10:53;99052.34;;;11.52;100.00
53262;BME280;39658;51.090;-1.786;2023-03-23T13:13:23;99056.66;;;11.53;100.00
53262;BME280;39658;51.090;-1.786;2023-03-23T13:16:02;99052.78;;;11.47;100.00